createdAt,value
2023-06-19T00:01:12.195Z,72.14
2023-06-19T00:03:39.758Z,71.91
2023-06-19T00:06:07.376Z,71.53
2023-06-19T00:08:34.652Z,71.42
2023-06-19T00:11:02.088Z,71.81
2023-06-19T00:13:29.311Z,71.01
2023-06-19T00:16:01.497Z,71.73
2023-06-19T00:18:29.760Z,72.96
2023-06-19T00:20:57.919Z,73.31
2023-06-19T00:23:25.210Z,72.07
2023-06-19T00:25:52.678Z,71.12
2023-06-19T00:28:21.175Z,70.40
2023-06-19T00:30:48.487Z,69.77
2023-06-19T00:33:15.959Z,70.88
2023-06-19T00:35:43.281Z,70.28
2023-06-19T00:38:11.293Z,70.55
2023-06-19T00:40:39.040Z,71.17
2023-06-19T00:43:06.782Z,71.97
2023-06-19T00:45:34.082Z,72.13
2023-06-19T00:48:01.901Z,70.92
2023-06-19T00:50:29.846Z,70.94
2023-06-19T00:52:57.937Z,72.07
2023-06-19T00:55:26.091Z,71.24
2023-06-19T00:57:54.251Z,70.93
2023-06-19T01:00:21.712Z,69.51
2023-06-19T01:02:49.496Z,67.81
2023-06-19T01:05:17.604Z,67.20
2023-06-19T01:07:48.272Z,67.44
2023-06-19T01:10:23.174Z,69.06
2023-06-19T01:12:53.260Z,69.79
2023-06-19T01:15:20.782Z,68.98
2023-06-19T01:17:48.550Z,67.74
2023-06-19T01:20:15.988Z,67.32
2023-06-19T01:22:45.290Z,66.78
2023-06-19T01:25:15.341Z,67.44
2023-06-19T01:27:43.374Z,66.82
2023-06-19T01:30:11.583Z,68.12
2023-06-19T01:32:48.217Z,71.51
2023-06-19T01:35:18.987Z,72.90
2023-06-19T01:37:46.352Z,73.50
2023-06-19T01:40:13.647Z,74.13
2023-06-19T01:42:41.307Z,72.27
2023-06-19T01:45:08.874Z,70.98
2023-06-19T01:47:37.039Z,67.63
2023-06-19T01:50:05.228Z,67.02
2023-06-19T01:52:32.529Z,69.58
2023-06-19T01:54:59.702Z,69.47
2023-06-19T01:57:27.169Z,70.56
2023-06-19T01:59:54.364Z,72.69
2023-06-19T02:02:22.693Z,74.00
2023-06-19T02:04:50.836Z,74.66
2023-06-19T02:07:17.984Z,76.36
2023-06-19T02:09:47.557Z,77.17
2023-06-19T02:12:17.057Z,76.95
2023-06-19T02:14:44.413Z,75.43
2023-06-19T02:17:13.013Z,73.52
2023-06-19T02:19:40.466Z,73.70
2023-06-19T02:22:07.792Z,74.70
2023-06-19T02:24:35.176Z,74.95
2023-06-19T02:27:03.334Z,74.00
2023-06-19T02:29:30.979Z,74.26
2023-06-19T02:31:58.201Z,75.66
2023-06-19T02:34:25.674Z,77.70
2023-06-19T02:36:52.943Z,76.94
2023-06-19T02:39:20.192Z,72.49
2023-06-19T02:41:49.502Z,68.57
2023-06-19T02:44:16.657Z,70.23
2023-06-19T02:46:44.610Z,74.12
2023-06-19T02:49:12.165Z,76.27
2023-06-19T02:51:42.110Z,76.45
2023-06-19T02:54:09.599Z,74.80
2023-06-19T02:56:37.079Z,75.80
2023-06-19T02:59:04.248Z,77.16
2023-06-19T03:01:31.574Z,76.29
2023-06-19T03:03:59.763Z,77.18
2023-06-19T03:06:27.283Z,78.31
2023-06-19T03:08:54.526Z,78.36
2023-06-19T03:11:22.239Z,78.04
2023-06-19T03:13:53.780Z,77.37
2023-06-19T03:16:21.555Z,75.91
2023-06-19T03:18:52.561Z,74.86
2023-06-19T03:21:21.136Z,74.44
2023-06-19T03:23:49.792Z,69.69
2023-06-19T03:26:17.628Z,68.12
2023-06-19T03:28:44.812Z,67.09
2023-06-19T03:31:13.028Z,66.65
2023-06-19T03:33:40.328Z,68.73
2023-06-19T03:36:08.722Z,67.31
2023-06-19T03:38:36.785Z,66.12
2023-06-19T03:41:03.970Z,67.01
2023-06-19T03:43:31.578Z,68.53
2023-06-19T03:45:59.111Z,69.46
2023-06-19T03:48:26.352Z,67.16
2023-06-19T03:50:53.912Z,66.31
2023-06-19T03:53:22.195Z,65.75
2023-06-19T03:55:49.400Z,65.08
2023-06-19T03:58:16.583Z,64.11
2023-06-19T04:00:44.217Z,63.87
2023-06-19T04:03:12.584Z,64.33
2023-06-19T04:05:42.682Z,63.94
2023-06-19T04:08:12.373Z,64.82
2023-06-19T04:10:43.660Z,65.27
2023-06-19T04:13:10.877Z,64.32
2023-06-19T04:15:38.671Z,63.14
2023-06-19T04:18:06.339Z,62.33
2023-06-19T04:20:34.741Z,62.93
2023-06-19T04:23:02.013Z,62.26
2023-06-19T04:25:29.551Z,60.85
2023-06-19T04:27:57.314Z,60.21
2023-06-19T04:30:24.847Z,60.48
2023-06-19T04:32:54.153Z,60.08
2023-06-19T04:35:21.648Z,60.11
2023-06-19T04:37:50.076Z,61.10
2023-06-19T04:40:17.797Z,61.32
2023-06-19T04:42:45.012Z,60.73
2023-06-19T04:45:12.883Z,60.33
2023-06-19T04:47:52.550Z,60.70
2023-06-19T04:50:21.990Z,59.67
2023-06-19T04:52:51.934Z,60.02
2023-06-19T04:55:19.705Z,60.14
2023-06-19T04:57:46.965Z,59.69
2023-06-19T05:00:16.181Z,59.74
2023-06-19T05:02:46.041Z,58.51
2023-06-19T05:05:13.872Z,58.20
2023-06-19T05:07:41.450Z,60.99
2023-06-19T05:10:08.904Z,62.48
2023-06-19T05:12:36.492Z,65.26
2023-06-19T05:15:04.164Z,64.32
2023-06-19T05:17:31.540Z,61.54
2023-06-19T05:19:58.826Z,62.58
2023-06-19T05:22:27.923Z,62.01
2023-06-19T05:24:55.209Z,61.43
2023-06-19T05:27:22.392Z,61.24
2023-06-19T05:29:49.816Z,60.26
2023-06-19T05:32:17.037Z,59.94
2023-06-19T05:34:44.238Z,60.44
2023-06-19T05:37:11.760Z,60.01
2023-06-19T05:39:39.110Z,59.48
2023-06-19T05:42:06.564Z,59.52
2023-06-19T05:44:34.079Z,59.07
2023-06-19T05:47:01.313Z,57.78
2023-06-19T05:49:28.523Z,57.47
2023-06-19T05:52:00.367Z,56.87
2023-06-19T05:54:27.655Z,57.14
2023-06-19T05:56:54.941Z,56.67
2023-06-19T05:59:22.939Z,56.35
2023-06-19T06:01:51.844Z,55.81
2023-06-19T06:04:19.793Z,55.01
2023-06-19T06:06:47.042Z,55.03
2023-06-19T06:09:14.474Z,55.20
2023-06-19T06:11:41.909Z,54.01
2023-06-19T06:14:11.737Z,54.53
2023-06-19T06:16:40.475Z,54.85
2023-06-19T06:19:08.029Z,54.01
2023-06-19T06:21:36.002Z,53.41
2023-06-19T06:24:03.900Z,53.69
2023-06-19T06:26:31.347Z,53.09
2023-06-19T06:28:58.546Z,53.43
2023-06-19T06:31:25.772Z,52.43
2023-06-19T06:33:53.233Z,52.60
2023-06-19T06:36:33.824Z,52.01
2023-06-19T06:39:03.994Z,51.47
2023-06-19T06:41:31.161Z,51.85
2023-06-19T06:43:58.412Z,50.98
2023-06-19T06:46:25.981Z,51.92
2023-06-19T06:48:53.330Z,51.68
2023-06-19T06:51:20.625Z,51.09
2023-06-19T06:53:48.085Z,51.64
2023-06-19T06:56:15.293Z,49.41
2023-06-19T06:58:42.769Z,49.81
2023-06-19T07:01:10.300Z,49.89
2023-06-19T07:03:37.605Z,49.37
2023-06-19T07:06:04.858Z,49.55
2023-06-19T07:08:32.322Z,48.94
2023-06-19T07:10:59.552Z,49.14
2023-06-19T07:13:26.796Z,48.10
2023-06-19T07:15:54.377Z,47.82
2023-06-19T07:18:21.695Z,48.25
2023-06-19T07:20:48.900Z,46.24
2023-06-19T07:23:16.326Z,46.19
2023-06-19T07:25:43.668Z,45.47
2023-06-19T07:28:10.853Z,45.08
2023-06-19T07:30:38.321Z,44.69
2023-06-19T07:33:05.851Z,43.62
2023-06-19T07:35:33.092Z,42.23
2023-06-19T07:38:00.649Z,39.74
2023-06-19T07:40:28.085Z,38.85
2023-06-19T07:42:55.571Z,37.51
2023-06-19T07:45:24.556Z,37.68
2023-06-19T07:47:55.964Z,37.91
2023-06-19T07:50:25.633Z,37.21
2023-06-19T07:52:54.672Z,37.85
2023-06-19T07:55:21.950Z,35.56
2023-06-19T07:57:49.567Z,34.75
2023-06-19T08:00:16.922Z,33.88
2023-06-19T08:02:44.702Z,32.80
2023-06-19T08:05:12.365Z,31.61
2023-06-19T08:07:39.715Z,31.29
2023-06-19T08:10:25.769Z,29.69
2023-06-19T08:12:54.127Z,29.77
2023-06-19T08:15:21.949Z,29.35
2023-06-19T08:17:49.226Z,29.42
2023-06-19T08:20:16.579Z,28.87
2023-06-19T08:22:44.104Z,27.08
2023-06-19T08:25:11.529Z,28.44
2023-06-19T08:27:38.972Z,28.11
2023-06-19T08:30:06.889Z,27.93
2023-06-19T08:32:36.014Z,27.47
2023-06-19T08:35:04.179Z,26.60
2023-06-19T08:37:31.801Z,26.58
2023-06-19T08:39:59.034Z,27.58
2023-06-19T08:42:26.432Z,26.02
2023-06-19T08:44:54.604Z,25.53
2023-06-19T08:47:21.874Z,26.78
2023-06-19T08:49:49.136Z,27.33
2023-06-19T08:52:16.569Z,28.13
2023-06-19T08:54:45.445Z,27.26
2023-06-19T08:57:15.984Z,28.55
2023-06-19T08:59:50.856Z,28.03
2023-06-19T09:02:18.290Z,28.96
2023-06-19T09:04:45.819Z,30.51
2023-06-19T09:07:14.231Z,30.00
2023-06-19T09:09:45.513Z,29.12
2023-06-19T09:12:13.515Z,29.60
2023-06-19T09:14:41.687Z,29.66
2023-06-19T09:17:12.230Z,30.23
2023-06-19T09:19:47.804Z,31.72
2023-06-19T09:22:15.044Z,33.77
2023-06-19T09:24:42.797Z,33.42
2023-06-19T09:27:13.827Z,31.05
2023-06-19T09:29:44.573Z,33.11
2023-06-19T09:32:30.046Z,30.69
2023-06-19T09:35:00.656Z,31.30
2023-06-19T09:37:31.359Z,32.38
2023-06-19T09:39:59.594Z,31.80
2023-06-19T09:42:31.754Z,31.13
2023-06-19T09:45:03.746Z,32.27
2023-06-19T09:47:32.419Z,31.36
2023-06-19T09:49:59.981Z,31.38
2023-06-19T09:52:28.797Z,30.99
2023-06-19T09:54:58.854Z,31.36
2023-06-19T09:57:26.363Z,31.13
2023-06-19T09:59:54.450Z,30.34
2023-06-19T10:02:22.285Z,28.74
2023-06-19T10:04:51.005Z,28.98
2023-06-19T10:07:19.001Z,29.40
2023-06-19T10:10:15.740Z,29.45
2023-06-19T10:12:44.268Z,28.32
2023-06-19T10:15:21.526Z,28.33
2023-06-19T10:17:49.982Z,25.84
2023-06-19T10:20:22.083Z,25.78
2023-06-19T10:22:53.731Z,26.01
2023-06-19T10:25:31.170Z,28.89
2023-06-19T10:27:59.144Z,28.75
2023-06-19T10:30:26.701Z,27.70
2023-06-19T10:32:54.704Z,28.51
2023-06-19T10:35:25.839Z,30.08
2023-06-19T10:37:53.189Z,28.10
2023-06-19T10:40:20.554Z,26.45
2023-06-19T10:42:48.181Z,27.53
2023-06-19T10:45:18.753Z,28.19
2023-06-19T10:47:46.611Z,26.74
2023-06-19T10:50:14.743Z,26.34
2023-06-19T10:52:43.523Z,28.09
2023-06-19T10:55:11.430Z,28.62
2023-06-19T10:57:39.986Z,27.04
2023-06-19T11:00:14.105Z,27.37
2023-06-19T11:02:44.256Z,27.98
2023-06-19T11:05:12.800Z,28.58
2023-06-19T11:07:40.285Z,27.36
2023-06-19T11:10:08.184Z,26.56
2023-06-19T11:12:35.612Z,26.71
2023-06-19T11:15:06.415Z,26.09
2023-06-19T11:17:34.030Z,26.94
2023-06-19T11:20:01.246Z,27.23
2023-06-19T11:22:38.948Z,28.00
2023-06-19T11:25:06.704Z,29.06
2023-06-19T11:27:34.096Z,27.48
2023-06-19T11:30:01.511Z,27.07
2023-06-19T11:32:33.030Z,28.74
2023-06-19T11:35:05.451Z,25.82
2023-06-19T11:37:32.913Z,25.90
2023-06-19T11:40:00.971Z,25.17
2023-06-19T11:42:29.745Z,24.72
2023-06-19T11:44:57.727Z,26.74
2023-06-19T11:47:25.032Z,26.17
2023-06-19T11:49:52.524Z,27.75
2023-06-19T11:52:20.021Z,24.72
2023-06-19T11:54:47.744Z,23.51
2023-06-19T11:57:15.008Z,24.40
2023-06-19T11:59:42.794Z,23.62
2023-06-19T12:02:10.255Z,24.50
2023-06-19T12:04:37.911Z,22.98
2023-06-19T12:07:05.478Z,23.72
2023-06-19T12:09:35.662Z,24.20
2023-06-19T12:12:03.587Z,24.78
2023-06-19T12:14:30.801Z,24.79
2023-06-19T12:16:58.041Z,25.14
2023-06-19T12:19:26.309Z,24.07
2023-06-19T12:21:53.522Z,24.72
2023-06-19T12:24:20.788Z,23.99
2023-06-19T12:26:48.347Z,24.09
2023-06-19T12:29:15.609Z,23.10
2023-06-19T12:31:44.318Z,22.38
2023-06-19T12:34:28.806Z,22.09
2023-06-19T12:36:58.652Z,23.74
2023-06-19T12:39:27.549Z,22.61
2023-06-19T12:41:54.837Z,23.70
2023-06-19T12:44:22.588Z,23.60
2023-06-19T12:46:50.247Z,23.86
2023-06-19T12:49:17.591Z,24.32
2023-06-19T12:51:44.803Z,23.96
2023-06-19T12:54:12.221Z,23.98
2023-06-19T12:56:39.477Z,23.91
2023-06-19T12:59:06.753Z,24.82
2023-06-19T13:01:34.374Z,25.03
2023-06-19T13:04:01.886Z,24.59
2023-06-19T13:06:29.359Z,25.13
2023-06-19T13:08:56.868Z,23.94
2023-06-19T13:11:24.071Z,25.09
2023-06-19T13:13:51.294Z,25.22
2023-06-19T13:16:24.841Z,25.92
2023-06-19T13:18:57.870Z,24.85
2023-06-19T13:21:25.800Z,24.55
2023-06-19T13:23:53.041Z,24.21
2023-06-19T13:26:20.548Z,25.91
2023-06-19T13:28:48.106Z,25.56
2023-06-19T13:31:15.317Z,23.47
2023-06-19T13:33:42.505Z,24.98
2023-06-19T13:36:10.079Z,24.25
2023-06-19T13:38:37.277Z,23.77
2023-06-19T13:41:04.482Z,24.73
2023-06-19T13:43:32.653Z,25.59
2023-06-19T13:45:59.829Z,25.54
2023-06-19T13:48:27.032Z,25.25
2023-06-19T13:50:54.450Z,25.35
2023-06-19T13:53:22.764Z,25.53
2023-06-19T13:55:50.465Z,24.60
2023-06-19T13:58:18.216Z,25.23
2023-06-19T14:00:45.492Z,24.59
2023-06-19T14:03:13.902Z,25.48
2023-06-19T14:05:41.294Z,24.27
2023-06-19T14:08:09.623Z,24.80
2023-06-19T14:10:37.117Z,22.91
2023-06-19T14:13:04.327Z,24.45
2023-06-19T14:15:31.577Z,24.85
2023-06-19T14:17:59.405Z,24.71
2023-06-19T14:20:26.755Z,25.15
2023-06-19T14:22:54.171Z,25.11
2023-06-19T14:25:21.939Z,25.97
2023-06-19T14:27:49.134Z,28.08
2023-06-19T14:30:16.395Z,26.37
2023-06-19T14:32:43.923Z,25.97
2023-06-19T14:35:11.209Z,27.29
2023-06-19T14:37:38.553Z,28.10
2023-06-19T14:40:07.092Z,25.27
2023-06-19T14:42:34.280Z,26.32
2023-06-19T14:45:01.433Z,26.24
2023-06-19T14:47:29.127Z,29.08
2023-06-19T14:49:56.411Z,28.65
2023-06-19T14:52:23.605Z,29.08
2023-06-19T14:54:51.258Z,27.31
2023-06-19T14:57:18.461Z,26.95
2023-06-19T14:59:45.695Z,30.05
2023-06-19T15:02:13.285Z,28.96
2023-06-19T15:04:41.339Z,29.97
2023-06-19T15:07:08.926Z,30.44
2023-06-19T15:09:36.466Z,27.68
2023-06-19T15:12:03.814Z,27.69
2023-06-19T15:14:31.036Z,28.65
2023-06-19T15:16:58.770Z,28.57
2023-06-19T15:19:26.013Z,29.42
2023-06-19T15:21:53.252Z,28.77
2023-06-19T15:24:20.753Z,30.73
2023-06-19T15:26:48.039Z,27.25
2023-06-19T15:29:15.268Z,28.47
2023-06-19T15:31:42.702Z,28.85
2023-06-19T15:34:09.959Z,28.61
2023-06-19T15:36:37.154Z,27.53
2023-06-19T15:39:04.573Z,28.07
2023-06-19T15:41:31.817Z,28.02
2023-06-19T15:43:59.039Z,28.84
2023-06-19T15:46:26.644Z,29.76
2023-06-19T15:48:53.847Z,30.37
2023-06-19T15:51:21.041Z,30.19
2023-06-19T15:53:48.539Z,29.37
2023-06-19T15:56:15.771Z,30.05
2023-06-19T15:58:43.011Z,30.38
2023-06-19T16:01:10.637Z,30.77
2023-06-19T16:03:38.204Z,30.17
2023-06-19T16:06:08.376Z,29.76
2023-06-19T16:08:36.465Z,29.62
2023-06-19T16:11:06.047Z,30.34
2023-06-19T16:13:33.676Z,30.24
2023-06-19T16:16:00.943Z,30.15
2023-06-19T16:18:28.508Z,30.24
2023-06-19T16:20:55.725Z,29.47
2023-06-19T16:23:22.880Z,30.37
2023-06-19T16:25:50.393Z,29.31
2023-06-19T16:28:18.048Z,30.46
2023-06-19T16:30:45.248Z,29.64
2023-06-19T16:33:12.760Z,30.09
2023-06-19T16:35:39.975Z,29.98
2023-06-19T16:38:07.291Z,29.13
2023-06-19T16:40:34.806Z,29.90
2023-06-19T16:43:02.012Z,30.17
2023-06-19T16:45:29.257Z,30.08
2023-06-19T16:47:56.879Z,29.72
2023-06-19T16:50:24.575Z,28.70
2023-06-19T16:52:52.039Z,28.97
2023-06-19T16:55:23.284Z,28.78
2023-06-19T16:57:50.533Z,30.28
2023-06-19T17:00:17.987Z,30.54
2023-06-19T17:02:46.339Z,29.52
2023-06-19T17:05:13.607Z,29.58
2023-06-19T17:07:40.973Z,30.66
2023-06-19T17:10:08.679Z,30.30
2023-06-19T17:12:35.997Z,31.49
2023-06-19T17:15:03.264Z,29.65
2023-06-19T17:17:34.431Z,30.90
2023-06-19T17:20:05.879Z,30.82
2023-06-19T17:22:33.382Z,31.16
2023-06-19T17:25:00.553Z,32.39
2023-06-19T17:27:27.788Z,31.03
2023-06-19T17:29:55.379Z,32.66
2023-06-19T17:32:22.600Z,33.71
2023-06-19T17:34:49.824Z,33.27
2023-06-19T17:37:17.329Z,33.58
2023-06-19T17:39:44.547Z,33.73
2023-06-19T17:42:11.786Z,34.45
2023-06-19T17:44:39.349Z,33.81
2023-06-19T17:47:06.579Z,34.84
2023-06-19T17:49:33.808Z,35.71
2023-06-19T17:52:01.437Z,36.50
2023-06-19T17:54:28.665Z,36.47
2023-06-19T17:56:55.864Z,36.51
2023-06-19T17:59:23.335Z,36.82
2023-06-19T18:01:50.968Z,36.45
2023-06-19T18:04:18.479Z,36.84
2023-06-19T18:06:45.757Z,37.41
2023-06-19T18:09:12.970Z,37.32
2023-06-19T18:11:40.484Z,36.81
2023-06-19T18:14:07.680Z,35.78
2023-06-19T18:16:37.579Z,36.34
2023-06-19T18:19:05.969Z,37.92
2023-06-19T18:21:33.129Z,38.95
2023-06-19T18:24:02.512Z,39.99
2023-06-19T18:26:31.694Z,40.10
2023-06-19T18:28:58.914Z,40.51
2023-06-19T18:31:26.209Z,40.56
2023-06-19T18:33:54.906Z,39.96
2023-06-19T18:36:22.185Z,39.72
2023-06-19T18:38:49.420Z,39.23
2023-06-19T18:41:16.947Z,39.60
2023-06-19T18:43:44.185Z,39.97
2023-06-19T18:46:11.406Z,40.95
2023-06-19T18:48:39.171Z,42.71
2023-06-19T18:51:06.362Z,43.63
2023-06-19T18:53:33.628Z,45.37
2023-06-19T18:56:01.290Z,46.91
2023-06-19T18:58:29.563Z,48.80
2023-06-19T19:00:56.995Z,48.12
2023-06-19T19:03:24.762Z,49.71
2023-06-19T19:05:52.114Z,49.39
2023-06-19T19:08:19.385Z,49.61
2023-06-19T19:10:46.899Z,50.16
2023-06-19T19:13:14.248Z,50.33
2023-06-19T19:15:41.451Z,50.96
2023-06-19T19:18:10.217Z,51.79
2023-06-19T19:20:37.494Z,52.27
2023-06-19T19:23:04.762Z,53.74
2023-06-19T19:25:33.996Z,56.28
2023-06-19T19:28:01.370Z,54.38
2023-06-19T19:30:28.791Z,57.19
2023-06-19T19:32:56.693Z,57.10
2023-06-19T19:35:24.013Z,56.47
2023-06-19T19:37:51.159Z,56.68
2023-06-19T19:40:18.690Z,56.39
2023-06-19T19:42:45.879Z,54.98
2023-06-19T19:45:13.127Z,55.08
2023-06-19T19:47:40.606Z,54.90
2023-06-19T19:50:08.182Z,55.95
2023-06-19T19:52:35.387Z,56.94
2023-06-19T19:55:03.005Z,57.80
2023-06-19T19:57:30.238Z,58.13
2023-06-19T19:59:57.424Z,57.90
2023-06-19T20:02:25.018Z,58.18
2023-06-19T20:04:53.233Z,57.86
2023-06-19T20:07:20.422Z,57.73
2023-06-19T20:09:47.796Z,58.46
2023-06-19T20:12:20.498Z,58.38
2023-06-19T20:14:49.045Z,59.54
2023-06-19T20:17:16.685Z,60.03
2023-06-19T20:19:43.921Z,60.46
2023-06-19T20:22:11.139Z,59.58
2023-06-19T20:24:38.700Z,59.63
2023-06-19T20:27:07.887Z,58.94
2023-06-19T20:29:35.090Z,59.16
2023-06-19T20:32:02.555Z,57.21
2023-06-19T20:34:30.238Z,57.39
2023-06-19T20:36:57.813Z,58.80
2023-06-19T20:39:26.031Z,59.52
2023-06-19T20:41:53.259Z,58.93
2023-06-19T20:44:20.586Z,60.10
2023-06-19T20:46:49.769Z,60.41
2023-06-19T20:49:17.033Z,62.07
2023-06-19T20:51:44.296Z,62.14
2023-06-19T20:54:11.756Z,62.84
2023-06-19T20:56:38.902Z,62.53
2023-06-19T20:59:06.062Z,63.04
2023-06-19T21:01:33.555Z,63.00
2023-06-19T21:04:02.743Z,62.63
2023-06-19T21:06:30.946Z,62.00
2023-06-19T21:09:00.554Z,62.43
2023-06-19T21:11:27.840Z,62.62
2023-06-19T21:13:55.266Z,63.44
2023-06-19T21:16:22.819Z,62.33
2023-06-19T21:18:50.090Z,61.89
2023-06-19T21:21:17.310Z,62.67
2023-06-19T21:23:44.715Z,62.15
2023-06-19T21:26:11.944Z,62.42
2023-06-19T21:28:39.110Z,63.57
2023-06-19T21:31:06.533Z,64.45
2023-06-19T21:33:33.798Z,66.70
2023-06-19T21:36:01.209Z,66.57
2023-06-19T21:38:31.928Z,67.02
2023-06-19T21:40:59.168Z,65.20
2023-06-19T21:43:27.751Z,64.71
2023-06-19T21:45:55.639Z,64.04
2023-06-19T21:48:22.920Z,64.17
2023-06-19T21:50:50.193Z,64.11
2023-06-19T21:53:17.676Z,63.41
2023-06-19T21:55:44.899Z,63.78
2023-06-19T21:58:12.189Z,64.24
2023-06-19T22:00:39.696Z,64.97
2023-06-19T22:03:08.108Z,65.44
2023-06-19T22:05:35.489Z,65.07
2023-06-19T22:08:02.730Z,64.54
2023-06-19T22:10:30.206Z,65.72
2023-06-19T22:12:57.738Z,67.20
2023-06-19T22:15:24.962Z,68.19
2023-06-19T22:17:52.424Z,67.91
2023-06-19T22:20:19.915Z,66.77
2023-06-19T22:22:47.531Z,64.34
2023-06-19T22:25:15.295Z,62.74
2023-06-19T22:27:46.374Z,63.20
2023-06-19T22:30:16.898Z,65.05
2023-06-19T22:32:44.417Z,64.57
2023-06-19T22:35:11.732Z,64.71
2023-06-19T22:37:39.763Z,65.95
2023-06-19T22:40:08.874Z,65.96
2023-06-19T22:42:36.516Z,67.53
2023-06-19T22:45:03.957Z,66.06
2023-06-19T22:47:31.518Z,65.41
2023-06-19T22:49:58.741Z,65.84
2023-06-19T22:52:25.959Z,65.17
2023-06-19T22:54:53.435Z,66.54
2023-06-19T22:57:20.706Z,66.12
2023-06-19T22:59:47.914Z,65.73
2023-06-19T23:02:15.400Z,65.67
2023-06-19T23:04:42.606Z,65.69
2023-06-19T23:07:09.806Z,66.76
2023-06-19T23:09:37.276Z,67.35
2023-06-19T23:12:05.210Z,66.90
2023-06-19T23:14:32.378Z,66.39
2023-06-19T23:16:59.933Z,66.50
2023-06-19T23:19:27.151Z,66.84
2023-06-19T23:21:55.582Z,66.26
2023-06-19T23:24:23.311Z,66.56
2023-06-19T23:26:50.587Z,66.99
2023-06-19T23:29:17.773Z,66.80
2023-06-19T23:31:45.201Z,66.19
2023-06-19T23:34:12.450Z,64.64
2023-06-19T23:36:39.661Z,63.20
2023-06-19T23:39:07.183Z,64.66
2023-06-19T23:41:34.424Z,66.20
2023-06-19T23:44:01.623Z,65.95
2023-06-19T23:46:29.122Z,66.23
2023-06-19T23:48:56.425Z,66.06
2023-06-19T23:51:23.752Z,66.56
2023-06-19T23:53:51.218Z,67.04
2023-06-19T23:56:18.414Z,67.22
2023-06-19T23:58:45.615Z,67.70
